Time,TemperatureF,DewpointF,PressureIn,WindDirection,WindDirectionDegrees,WindSpeedMPH,WindSpeedGustMPH,Humidity,HourlyPrecipIn,Conditions,Clouds,dailyrainin,SoftwareType,DateUTC
2013-09-22 00:10:00,50.5,48.0,30.04,SW,233,0.0,0.0,92,0.00,,,0.00,weatherlink.com 1.10,2013-09-22 05:10:00,
2013-09-22 00:25:00,50.2,48.0,30.04,SW,233,0.0,0.0,93,0.00,,,0.00,weatherlink.com 1.10,2013-09-22 05:25:00,
2013-09-22 00:40:00,49.9,48.0,30.03,SW,233,0.0,0.0,93,0.00,,,0.00,weatherlink.com 1.10,2013-09-22 05:40:00,
2013-09-22 00:55:00,49.5,48.0,30.04,SW,233,0.0,0.0,93,0.00,,,0.00,weatherlink.com 1.10,2013-09-22 05:55:00,
2013-09-22 01:10:00,49.6,48.0,30.04,SW,233,0.0,0.0,94,0.00,,,0.00,weatherlink.com 1.10,2013-09-22 06:10:00,
2013-09-22 01:25:00,49.6,48.0,30.05,SW,233,0.0,0.0,94,0.00,,,0.00,weatherlink.com 1.10,2013-09-22 06:25:00,
2013-09-22 01:40:00,49.6,48.0,30.05,SW,233,0.0,0.0,94,0.00,,,0.00,weatherlink.com 1.10,2013-09-22 06:40:00,
2013-09-22 01:55:00,49.4,48.0,30.05,SW,233,0.0,0.0,94,0.00,,,0.00,weatherlink.com 1.10,2013-09-22 06:55:00,
2013-09-22 02:10:00,48.9,47.0,30.05,SW,233,0.0,0.0,94,0.00,,,0.00,weatherlink.com 1.10,2013-09-22 07:10:00,
2013-09-22 02:25:00,48.5,47.0,30.05,SW,233,0.0,0.0,94,0.00,,,0.00,weatherlink.com 1.10,2013-09-22 07:25:00,
2013-09-22 02:40:00,48.6,47.0,30.05,SW,233,0.0,2.0,95,0.00,,,0.00,weatherlink.com 1.10,2013-09-22 07:40:00,
2013-09-22 02:55:00,48.6,47.0,30.05,SW,233,0.0,0.0,95,0.00,,,0.00,weatherlink.com 1.10,2013-09-22 07:55:00,
2013-09-22 03:10:00,48.5,47.0,30.05,SW,233,0.0,0.0,95,0.00,,,0.00,weatherlink.com 1.10,2013-09-22 08:10:00,
2013-09-22 03:25:00,48.4,47.0,30.06,SW,233,0.0,0.0,95,0.00,,,0.00,weatherlink.com 1.10,2013-09-22 08:25:00,
2013-09-22 03:41:00,47.5,46.0,30.06,SW,233,0.0,1.0,95,0.00,,,0.00,weatherlink.com 1.10,2013-09-22 08:41:00,
2013-09-22 03:56:00,47.0,46.0,30.06,SW,233,0.0,0.0,95,0.00,,,0.00,weatherlink.com 1.10,2013-09-22 08:56:00,
2013-09-22 04:11:00,46.6,46.0,30.07,SW,233,0.0,0.0,96,0.01,,,0.01,weatherlink.com 1.10,2013-09-22 09:11:00,
2013-09-22 04:26:00,46.1,45.0,30.07,SW,233,0.0,0.0,96,0.01,,,0.01,weatherlink.com 1.10,2013-09-22 09:26:00,
2013-09-22 04:41:00,46.0,45.0,30.07,SW,233,0.0,0.0,96,0.01,,,0.01,weatherlink.com 1.10,2013-09-22 09:41:00,
2013-09-22 04:56:00,45.8,45.0,30.07,SW,233,0.0,0.0,96,0.01,,,0.01,weatherlink.com 1.10,2013-09-22 09:56:00,
2013-09-22 05:11:00,46.1,45.0,30.08,SW,233,0.0,0.0,96,0.00,,,0.01,weatherlink.com 1.10,2013-09-22 10:11:00,
2013-09-22 05:26:00,45.9,45.0,30.08,SW,233,0.0,0.0,96,0.00,,,0.01,weatherlink.com 1.10,2013-09-22 10:26:00,
2013-09-22 05:41:00,45.4,44.0,30.08,SW,233,0.0,0.0,96,0.00,,,0.01,weatherlink.com 1.10,2013-09-22 10:41:00,
2013-09-22 06:11:00,45.2,44.0,30.09,SW,233,0.0,0.0,96,0.00,,,0.01,weatherlink.com 1.10,2013-09-22 11:11:00,
2013-09-22 06:26:00,45.3,44.0,30.10,SW,233,0.0,0.0,96,0.00,,,0.01,weatherlink.com 1.10,2013-09-22 11:26:00,
2013-09-22 06:41:00,45.0,44.0,30.10,SW,233,2.0,4.0,96,0.00,,,0.01,weatherlink.com 1.10,2013-09-22 11:41:00,
2013-09-22 06:56:00,44.9,44.0,30.11,SW,233,0.0,0.0,96,0.00,,,0.01,weatherlink.com 1.10,2013-09-22 11:56:00,
2013-09-22 07:11:00,45.0,44.0,30.11,SW,233,0.0,0.0,96,0.00,,,0.01,weatherlink.com 1.10,2013-09-22 12:11:00,
2013-09-22 07:26:00,45.9,45.0,30.11,SW,233,0.0,0.0,96,0.00,,,0.01,weatherlink.com 1.10,2013-09-22 12:26:00,
2013-09-22 07:41:00,46.9,46.0,30.12,SW,233,0.0,0.0,96,0.00,,,0.01,weatherlink.com 1.10,2013-09-22 12:41:00,
2013-09-22 07:56:00,47.7,46.0,30.12,SW,233,0.0,3.0,95,0.00,,,0.01,weatherlink.com 1.10,2013-09-22 12:56:00,
2013-09-22 08:11:00,-999.0,-99.9,30.12,North,-999,-999.0,-999.0,-999,0.00,,,0.01,weatherlink.com 1.10,2013-09-22 13:11:00,
2013-09-22 08:26:00,-999.0,-99.9,30.12,North,-999,-999.0,-999.0,-999,0.00,,,0.01,weatherlink.com 1.10,2013-09-22 13:26:00,
2013-09-22 08:41:00,-999.0,-99.9,30.12,North,-999,-999.0,-999.0,-999,0.00,,,0.01,weatherlink.com 1.10,2013-09-22 13:41:00,
2013-09-22 08:56:00,-999.0,-99.9,30.13,North,-999,-999.0,-999.0,-999,0.00,,,0.01,weatherlink.com 1.10,2013-09-22 13:56:00,
2013-09-22 09:11:00,-999.0,-99.9,30.13,North,-999,-999.0,-999.0,-999,0.00,,,0.01,weatherlink.com 1.10,2013-09-22 14:11:00,
2013-09-22 09:26:00,-999.0,-99.9,30.13,North,-999,-999.0,-999.0,-999,0.00,,,0.01,weatherlink.com 1.10,2013-09-22 14:26:00,
2013-09-22 09:41:00,53.8,47.0,30.12,ESE,106,2.0,8.0,78,0.00,,,0.01,weatherlink.com 1.10,2013-09-22 14:41:00,
2013-09-22 09:57:00,55.5,48.0,30.12,ESE,106,0.0,8.0,76,0.00,,,0.01,weatherlink.com 1.10,2013-09-22 14:57:00,
2013-09-22 10:12:00,55.7,48.0,30.12,SE,135,5.0,11.0,75,0.00,,,0.01,weatherlink.com 1.10,2013-09-22 15:12:00,
2013-09-22 10:27:00,56.2,48.0,30.12,ESE,103,4.0,8.0,75,0.00,,,0.01,weatherlink.com 1.10,2013-09-22 15:27:00,
2013-09-22 10:42:00,57.3,49.0,30.11,East,90,2.0,11.0,74,0.00,,,0.01,weatherlink.com 1.10,2013-09-22 15:42:00,
2013-09-22 10:57:00,58.5,49.0,30.11,ESE,105,0.0,9.0,72,0.00,,,0.01,weatherlink.com 1.10,2013-09-22 15:57:00,
2013-09-22 11:12:00,59.7,51.0,30.10,ESE,120,0.0,9.0,72,0.00,,,0.01,weatherlink.com 1.10,2013-09-22 16:12:00,
2013-09-22 11:27:00,60.4,50.0,30.10,ESE,107,7.0,10.0,69,0.00,,,0.01,weatherlink.com 1.10,2013-09-22 16:27:00,
2013-09-22 11:42:00,61.3,51.0,30.10,ESE,118,5.0,11.0,68,0.00,,,0.01,weatherlink.com 1.10,2013-09-22 16:42:00,
2013-09-22 11:57:00,62.2,51.0,30.09,East,94,0.0,10.0,67,0.00,,,0.01,weatherlink.com 1.10,2013-09-22 16:57:00,
2013-09-22 12:27:00,62.7,52.0,30.09,SE,135,1.0,8.0,67,0.00,,,0.01,weatherlink.com 1.10,2013-09-22 17:27:00,
2013-09-22 12:42:00,62.5,52.0,30.08,South,180,8.0,12.0,68,0.00,,,0.01,weatherlink.com 1.10,2013-09-22 17:42:00,
2013-09-22 12:57:00,63.6,52.0,30.07,South,189,0.0,10.0,66,0.00,,,0.01,weatherlink.com 1.10,2013-09-22 17:57:00,
2013-09-22 13:12:00,64.3,52.0,30.07,South,176,4.0,9.0,65,0.00,,,0.01,weatherlink.com 1.10,2013-09-22 18:12:00,
2013-09-22 13:27:00,64.5,52.0,30.06,SE,130,0.0,10.0,64,0.00,,,0.01,weatherlink.com 1.10,2013-09-22 18:27:00,
2013-09-22 13:42:00,65.0,52.0,30.06,SSE,165,0.0,11.0,64,0.00,,,0.01,weatherlink.com 1.10,2013-09-22 18:42:00,
2013-09-22 13:57:00,65.6,53.0,30.05,South,175,0.0,14.0,63,0.00,,,0.01,weatherlink.com 1.10,2013-09-22 18:57:00,
2013-09-22 14:12:00,65.1,53.0,30.04,SW,220,3.0,15.0,64,0.00,,,0.01,weatherlink.com 1.10,2013-09-22 19:12:00,
2013-09-22 14:27:00,66.3,53.0,30.04,SSE,162,1.0,14.0,63,0.00,,,0.01,weatherlink.com 1.10,2013-09-22 19:27:00,
2013-09-22 14:42:00,66.0,53.0,30.03,South,182,9.0,15.0,63,0.00,,,0.01,weatherlink.com 1.10,2013-09-22 19:42:00,
2013-09-22 14:57:00,66.7,53.0,30.03,South,173,12.0,12.0,62,0.00,,,0.01,weatherlink.com 1.10,2013-09-22 19:57:00,
2013-09-22 15:12:00,66.5,53.0,30.02,ESE,113,4.0,14.0,62,0.00,,,0.01,weatherlink.com 1.10,2013-09-22 20:12:00,
2013-09-22 15:27:00,67.0,53.0,30.02,SSE,163,10.0,12.0,62,0.00,,,0.01,weatherlink.com 1.10,2013-09-22 20:27:00,
2013-09-22 15:42:00,67.1,53.0,30.01,SSE,158,7.0,15.0,62,0.00,,,0.01,weatherlink.com 1.10,2013-09-22 20:42:00,
2013-09-22 15:57:00,68.0,53.0,30.01,SSE,165,7.0,13.0,60,0.00,,,0.01,weatherlink.com 1.10,2013-09-22 20:57:00,
2013-09-22 16:12:00,68.3,54.0,30.01,SE,130,6.0,13.0,60,0.00,,,0.01,weatherlink.com 1.10,2013-09-22 21:12:00,
2013-09-22 16:27:00,68.4,54.0,30.00,SSE,156,4.0,10.0,60,0.00,,,0.01,weatherlink.com 1.10,2013-09-22 21:27:00,
2013-09-22 16:42:00,68.1,54.0,30.00,South,180,8.0,13.0,60,0.00,,,0.01,weatherlink.com 1.10,2013-09-22 21:42:00,
2013-09-22 16:57:00,68.1,54.0,30.00,South,183,7.0,12.0,61,0.00,,,0.01,weatherlink.com 1.10,2013-09-22 21:57:00,
2013-09-22 17:12:00,68.5,53.0,30.00,ESE,121,8.0,12.0,58,0.00,,,0.01,weatherlink.com 1.10,2013-09-22 22:12:00,
2013-09-22 17:28:00,68.4,52.0,30.00,SSE,155,6.0,14.0,57,0.00,,,0.01,weatherlink.com 1.10,2013-09-22 22:28:00,
2013-09-22 17:43:00,68.0,52.0,30.00,East,96,9.0,12.0,57,0.00,,,0.01,weatherlink.com 1.10,2013-09-22 22:43:00,
2013-09-22 17:58:00,68.0,52.0,30.00,SE,143,11.0,11.0,58,0.00,,,0.01,weatherlink.com 1.10,2013-09-22 22:58:00,
2013-09-22 18:13:00,68.0,52.0,30.01,ESE,103,5.0,10.0,58,0.00,,,0.01,weatherlink.com 1.10,2013-09-22 23:13:00,
2013-09-22 18:28:00,67.4,52.0,30.01,SE,127,8.0,12.0,58,0.00,,,0.01,weatherlink.com 1.10,2013-09-22 23:28:00,
2013-09-22 18:43:00,66.7,52.0,30.01,ESE,109,5.0,10.0,60,0.00,,,0.01,weatherlink.com 1.10,2013-09-22 23:43:00,
2013-09-22 18:58:00,65.9,52.0,30.01,East,98,7.0,11.0,61,0.00,,,0.01,weatherlink.com 1.10,2013-09-22 23:58:00,
2013-09-22 19:13:00,64.9,52.0,30.01,ESE,105,5.0,9.0,64,0.00,,,0.01,weatherlink.com 1.10,2013-09-23 00:13:00,
2013-09-22 19:28:00,64.2,52.0,30.02,East,92,5.0,9.0,65,0.00,,,0.01,weatherlink.com 1.10,2013-09-23 00:28:00,
2013-09-22 19:43:00,63.6,52.0,30.02,East,92,6.0,8.0,66,0.00,,,0.01,weatherlink.com 1.10,2013-09-23 00:43:00,
2013-09-22 19:58:00,63.1,52.0,30.02,East,95,2.0,8.0,67,0.00,,,0.01,weatherlink.com 1.10,2013-09-23 00:58:00,
2013-09-22 20:13:00,62.9,52.0,30.03,ESE,107,6.0,11.0,67,0.00,,,0.01,weatherlink.com 1.10,2013-09-23 01:13:00,
2013-09-22 20:28:00,62.5,52.0,30.03,SE,134,0.0,8.0,68,0.00,,,0.01,weatherlink.com 1.10,2013-09-23 01:28:00,
2013-09-22 20:43:00,61.9,51.0,30.04,SE,140,11.0,13.0,68,0.00,,,0.01,weatherlink.com 1.10,2013-09-23 01:43:00,
2013-09-22 20:58:00,62.0,51.0,30.04,East,92,8.0,13.0,68,0.00,,,0.01,weatherlink.com 1.10,2013-09-23 01:58:00,
2013-09-22 21:13:00,61.6,51.0,30.04,SE,128,8.0,14.0,69,0.00,,,0.01,weatherlink.com 1.10,2013-09-23 02:13:00,
2013-09-22 21:28:00,61.2,51.0,30.05,SE,136,10.0,15.0,69,0.00,,,0.01,weatherlink.com 1.10,2013-09-23 02:28:00,
2013-09-22 21:43:00,60.8,51.0,30.05,East,94,7.0,15.0,70,0.00,,,0.01,weatherlink.com 1.10,2013-09-23 02:43:00,
2013-09-22 21:58:00,60.5,51.0,30.05,ESE,122,9.0,15.0,70,0.00,,,0.01,weatherlink.com 1.10,2013-09-23 02:58:00,
2013-09-22 22:13:00,60.0,50.0,30.05,SE,136,10.0,16.0,70,0.00,,,0.01,weatherlink.com 1.10,2013-09-23 03:13:00,
2013-09-22 22:28:00,59.7,50.0,30.05,ESE,117,2.0,12.0,70,0.00,,,0.01,weatherlink.com 1.10,2013-09-23 03:28:00,
2013-09-22 22:43:00,59.4,50.0,30.05,SE,142,6.0,14.0,70,0.00,,,0.01,weatherlink.com 1.10,2013-09-23 03:43:00,
2013-09-22 22:58:00,59.1,50.0,30.05,SE,136,5.0,14.0,71,0.00,,,0.01,weatherlink.com 1.10,2013-09-23 03:58:00,
2013-09-22 23:13:00,58.9,49.0,30.05,ESE,109,13.0,15.0,70,0.00,,,0.01,weatherlink.com 1.10,2013-09-23 04:13:00,
2013-09-22 23:28:00,58.7,49.0,30.05,ESE,119,6.0,14.0,70,0.00,,,0.01,weatherlink.com 1.10,2013-09-23 04:28:00,
2013-09-22 23:43:00,58.3,49.0,30.05,SE,142,7.0,16.0,70,0.00,,,0.01,weatherlink.com 1.10,2013-09-23 04:43:00,
2013-09-22 23:58:00,58.1,49.0,30.06,SSE,159,0.0,6.0,71,0.00,,,0.01,weatherlink.com 1.10,2013-09-23 04:58:00,